Time;durP1;ratioP1;P1;durP2;ratioP2;P2;SDS_P1;SDS_P2;PMS_P1;PMS_P2;Temp;Humidity;BMP_temperature;BMP_pressure;BME280_temperature;BME280_humidity;BME280_pressure;Samples;Min_cycle;Max_cycle;Signal;HPM_P1;HPM_P2
2021/12/29 00:03:21;;;;;;;1.60;0.57;;;20.70;30.10;21.10;92928.00;;;;10232665;28;46428;-58
2021/12/29 00:08:22;;;;;;;1.27;0.43;;;20.70;30.10;21.10;92934.00;;;;10234043;28;45373;-58
2021/12/29 00:13:26;;;;;;;1.75;0.55;;;20.70;30.10;21.10;92960.00;;;;10248646;28;46291;-57
2021/12/29 00:18:32;;;;;;;1.20;0.40;;;20.70;30.10;21.10;92941.00;;;;10232250;28;45409;-58
2021/12/29 00:23:33;;;;;;;;;;;20.70;30.10;21.10;92974.00;;;;10233425;28;45201;-57
2021/12/29 00:28:34;;;;;;;1.13;0.40;;;20.70;30.10;21.00;92965.00;;;;10232409;28;45148;-57
2021/12/29 00:33:34;;;;;;;1.05;0.30;;;20.70;30.10;21.00;92981.00;;;;10232029;28;46316;-58
2021/12/29 00:38:36;;;;;;;1.02;0.40;;;20.60;30.10;21.00;92992.00;;;;10233356;28;46176;-58
2021/12/29 00:43:37;;;;;;;1.02;0.40;;;20.60;30.10;21.00;92999.00;;;;10232856;28;45454;-58
2021/12/29 00:48:42;;;;;;;2.45;0.50;;;20.60;30.10;21.00;92998.00;;;;10233028;28;45246;-57
2021/12/29 00:53:43;;;;;;;1.45;0.45;;;20.60;30.20;20.90;93009.00;;;;10231614;28;46125;-58
2021/12/29 00:58:44;;;;;;;0.98;0.40;;;20.60;30.20;21.00;93006.00;;;;10231158;28;46428;-56
2021/12/29 01:03:44;;;;;;;1.25;0.30;;;20.60;30.20;20.90;93026.00;;;;10231799;28;45273;-58
2021/12/29 01:08:45;;;;;;;1.25;0.30;;;20.60;30.20;20.90;93014.00;;;;10230844;28;45903;-58
2021/12/29 01:13:48;;;;;;;0.80;0.30;;;20.60;30.20;20.90;93039.00;;;;10246775;28;45405;-58
2021/12/29 01:18:49;;;;;;;1.55;0.32;;;20.60;30.20;20.90;93031.00;;;;10231791;28;46423;-56
2021/12/29 01:23:49;;;;;;;2.13;0.40;;;20.50;30.20;20.90;93042.00;;;;10231805;28;45298;-57
2021/12/29 01:28:50;;;;;;;2.78;0.47;;;20.50;30.20;20.90;93035.00;;;;10230545;28;45312;-57
2021/12/29 01:33:51;;;;;;;1.40;0.40;;;20.50;30.20;20.90;93033.00;;;;10230786;28;45976;-58
2021/12/29 01:38:51;;;;;;;3.45;0.50;;;20.50;30.20;20.90;93027.00;;;;10231483;28;45311;-58
2021/12/29 01:43:53;;;;;;;0.80;0.20;;;20.50;30.20;20.90;93043.00;;;;10229743;28;46695;-57
2021/12/29 01:48:53;;;;;;;1.15;0.40;;;20.50;30.20;20.90;93044.00;;;;10229900;28;45427;-58
2021/12/29 01:54:15;;;;;;;1.60;0.40;;;20.50;30.20;20.90;93053.00;;;;10231251;28;45111;-57
2021/12/29 01:59:15;;;;;;;1.33;0.45;;;20.50;30.20;20.90;93055.00;;;;10213285;28;47611;-57
2021/12/29 02:04:17;;;;;;;1.10;0.30;;;20.50;30.10;20.90;93063.00;;;;10225057;28;45492;-59
2021/12/29 02:09:17;;;;;;;1.40;0.43;;;20.50;30.20;20.80;93068.00;;;;10232339;28;45972;-58
2021/12/29 02:14:18;;;;;;;1.33;0.40;;;20.50;30.30;20.80;93067.00;;;;10243019;28;45168;-58
2021/12/29 02:19:19;;;;;;;1.10;0.30;;;20.50;30.30;20.80;93078.00;;;;10231086;28;45132;-56
2021/12/29 02:24:23;;;;;;;2.72;0.52;;;20.50;30.20;20.80;93055.00;;;;10232916;28;45224;-57
2021/12/29 02:29:25;;;;;;;1.33;0.30;;;20.50;30.20;20.80;93082.00;;;;10235455;28;47916;-59
2021/12/29 02:34:26;;;;;;;1.45;0.40;;;20.40;30.20;20.80;93074.00;;;;10235834;28;45273;-58
2021/12/29 02:39:27;;;;;;;1.52;0.30;;;20.50;30.20;20.80;93069.00;;;;10235540;28;45453;-58
2021/12/29 02:44:29;;;;;;;1.45;0.30;;;20.50;30.20;20.80;93066.00;;;;10235331;28;45445;-58
2021/12/29 02:49:30;;;;;;;1.42;0.50;;;20.40;30.20;20.80;93099.00;;;;10236262;28;46067;-57
2021/12/29 02:54:31;;;;;;;1.35;0.32;;;20.50;30.30;20.80;93096.00;;;;10235411;28;45291;-58
2021/12/29 02:59:32;;;;;;;1.42;0.40;;;20.50;30.30;20.80;93096.00;;;;10236354;28;45191;-58
2021/12/29 03:04:33;;;;;;;1.33;0.30;;;20.40;30.30;20.80;93108.00;;;;10234436;28;45561;-58
2021/12/29 03:09:34;;;;;;;0.80;0.30;;;20.50;30.30;20.80;93097.00;;;;10238864;28;46063;-58
2021/12/29 03:14:35;;;;;;;1.67;0.40;;;20.40;30.20;20.80;93118.00;;;;10246322;28;45294;-58
2021/12/29 03:19:35;;;;;;;0.60;0.30;;;20.40;30.20;20.80;93112.00;;;;10235705;28;45103;-57
2021/12/29 03:24:36;;;;;;;1.05;0.30;;;20.40;30.20;20.80;93128.00;;;;10235366;28;46470;-58
2021/12/29 03:29:37;;;;;;;1.85;0.40;;;20.40;30.20;20.80;93108.00;;;;10233900;28;45504;-58
2021/12/29 03:34:37;;;;;;;1.20;0.30;;;20.40;30.30;20.80;93108.00;;;;10233553;28;45350;-58
2021/12/29 03:39:38;;;;;;;1.83;0.43;;;20.40;30.30;20.80;93107.00;;;;10235397;28;46276;-57
2021/12/29 03:44:39;;;;;;;0.98;0.30;;;20.40;30.30;20.80;93111.00;;;;10234803;28;45284;-57
2021/12/29 03:49:40;;;;;;;1.33;0.50;;;20.40;30.20;20.70;93142.00;;;;10234831;28;45118;-56
2021/12/29 03:54:40;;;;;;;1.73;0.45;;;20.40;30.30;20.70;93127.00;;;;10234903;28;45204;-57
2021/12/29 03:59:41;;;;;;;0.82;0.28;;;20.40;30.30;20.70;93146.00;;;;10232983;28;45171;-58
2021/12/29 04:04:42;;;;;;;1.10;0.40;;;20.40;30.30;20.70;93140.00;;;;10234205;28;45781;-58
2021/12/29 04:09:42;;;;;;;1.20;0.32;;;20.40;30.20;20.70;93143.00;;;;10237936;28;45519;-57
2021/12/29 04:14:43;;;;;;;1.23;0.25;;;20.40;30.30;20.70;93135.00;;;;10244268;28;45464;-58
2021/12/29 04:25:05;;;;;;;1.48;0.30;;;20.40;30.30;20.80;93133.00;;;;10233896;28;45659;-58
2021/12/29 04:30:07;;;;;;;0.93;0.20;;;20.40;30.30;20.70;93161.00;;;;10233012;28;46811;-58
2021/12/29 04:35:08;;;;;;;1.00;0.32;;;20.40;30.30;20.70;93160.00;;;;10248026;28;47972;-58
2021/12/29 04:40:09;;;;;;;0.95;0.30;;;20.40;30.30;20.70;93161.00;;;;10232692;28;46994;-58
2021/12/29 04:45:12;;;;;;;0.55;0.20;;;20.40;30.30;20.70;93174.00;;;;10231660;28;45214;-57
2021/12/29 04:50:36;;;;;;;1.58;0.30;;;20.40;30.20;20.70;93198.00;;;;10231346;28;45302;-58
2021/12/29 04:55:38;;;;;;;0.52;0.30;;;20.40;30.30;20.70;93185.00;;;;10232797;28;45250;-57
2021/12/29 05:00:39;;;;;;;0.98;0.40;;;20.40;30.20;20.70;93226.00;;;;10230898;28;46372;-58
2021/12/29 05:05:53;;;;;;;0.90;0.22;;;20.40;30.30;20.70;93223.00;;;;10232307;28;45225;-58
2021/12/29 05:11:02;;;;;;;0.73;0.30;;;20.40;30.30;20.80;93227.00;;;;10261929;28;48483;-58
2021/12/29 05:16:03;;;;;;;0.50;0.20;;;20.40;30.30;20.90;93219.00;;;;10192312;28;45318;-57
2021/12/29 05:21:06;;;;;;;0.55;0.32;;;20.50;30.30;21.00;93209.00;;;;10192351;28;45569;-58
2021/12/29 05:26:07;;;;;;;1.10;0.30;;;20.50;30.20;21.10;93224.00;;;;10191582;28;46095;-58
2021/12/29 05:31:08;;;;;;;1.48;0.22;;;20.60;30.10;21.10;93232.00;;;;10206790;28;45494;-57
2021/12/29 05:36:08;;;;;;;0.38;0.15;;;20.70;30.00;21.20;93231.00;;;;10191733;28;45187;-58
2021/12/29 05:41:09;;;;;;;1.55;0.40;;;20.70;30.00;21.20;93243.00;;;;10206341;28;46166;-58
2021/12/29 05:46:10;;;;;;;0.73;0.20;;;20.80;30.00;21.20;93242.00;;;;10206046;28;48474;-58
2021/12/29 05:51:12;;;;;;;1.42;0.30;;;20.80;30.00;21.30;93256.00;;;;10206560;28;45291;-58
2021/12/29 05:56:13;;;;;;;0.82;0.25;;;20.80;29.90;21.30;93249.00;;;;10191168;28;45200;-57
2021/12/29 06:01:13;;;;;;;1.67;0.30;;;20.90;29.90;21.30;93257.00;;;;10212068;28;45265;-58
2021/12/29 06:06:14;;;;;;;1.15;0.40;;;20.90;29.90;21.40;93265.00;;;;10212996;28;46202;-58
2021/12/29 06:11:15;;;;;;;0.50;0.20;;;20.90;29.80;21.40;93276.00;;;;10246674;28;45874;-57
2021/12/29 06:16:15;;;;;;;0.98;0.30;;;21.00;29.80;21.40;93269.00;;;;10236321;28;45240;-57
2021/12/29 06:21:16;;;;;;;0.82;0.30;;;21.00;29.80;21.50;93280.00;;;;10235787;28;47027;-58
2021/12/29 06:26:17;;;;;;;1.00;0.30;;;21.00;29.70;21.50;93270.00;;;;10237270;28;45177;-56
2021/12/29 06:31:18;;;;;;;0.85;0.30;;;21.00;29.70;21.50;93276.00;;;;10236039;28;45129;-58
2021/12/29 06:36:19;;;;;;;0.55;0.30;;;21.00;29.70;21.50;93265.00;;;;10237069;28;45328;-58
2021/12/29 06:41:19;;;;;;;1.70;0.32;;;21.10;29.70;21.50;93294.00;;;;10235627;28;46426;-58
2021/12/29 06:46:20;;;;;;;0.65;0.20;;;21.10;29.70;21.50;93293.00;;;;10235572;28;46180;-57
2021/12/29 06:51:21;;;;;;;0.60;0.20;;;21.10;29.60;21.50;93303.00;;;;10235494;28;45179;-58
2021/12/29 06:56:22;;;;;;;0.88;0.20;;;21.10;29.60;21.50;93302.00;;;;10218834;28;47453;-58
2021/12/29 07:01:22;;;;;;;1.05;0.30;;;21.10;29.60;21.50;93307.00;;;;10234760;28;45341;-58
2021/12/29 07:06:23;;;;;;;0.55;0.20;;;21.10;29.60;21.60;93329.00;;;;10250809;28;47177;-57
2021/12/29 07:11:24;;;;;;;1.83;0.40;;;21.10;29.50;21.60;93325.00;;;;10248361;28;45143;-58
2021/12/29 07:16:24;;;;;;;0.95;0.10;;;21.10;29.50;21.60;93331.00;;;;10230963;28;45521;-58
2021/12/29 07:21:25;;;;;;;1.52;0.40;;;21.20;29.60;21.60;93335.00;;;;10232892;28;45160;-57
2021/12/29 07:26:26;;;;;;;1.45;0.30;;;21.20;29.60;21.60;93344.00;;;;10234061;28;45539;-57
2021/12/29 07:31:27;;;;;;;1.02;0.38;;;21.20;29.60;21.60;93348.00;;;;10235424;28;45274;-59
2021/12/29 07:36:28;;;;;;;1.67;0.40;;;21.20;29.60;21.60;93347.00;;;;10233632;28;45433;-59
2021/12/29 07:41:29;;;;;;;1.45;0.43;;;21.20;29.50;21.60;93352.00;;;;10235176;28;45996;-57
2021/12/29 07:46:33;;;;;;;0.68;0.40;;;21.20;29.60;21.60;93351.00;;;;10235039;28;45274;-57
2021/12/29 07:51:34;;;;;;;0.98;0.40;;;21.20;30.00;21.60;93366.00;;;;10233384;28;45268;-57
2021/12/29 07:56:35;;;;;;;1.13;0.40;;;21.20;29.50;21.60;93370.00;;;;10234646;28;45175;-57
2021/12/29 08:01:36;;;;;;;1.67;0.50;;;21.20;29.50;21.70;93366.00;;;;10234219;28;45950;-58
2021/12/29 08:06:36;;;;;;;0.70;0.25;;;21.20;29.50;21.70;93389.00;;;;10232477;28;45281;-58
2021/12/29 08:11:39;;;;;;;1.45;0.40;;;21.20;29.50;21.70;93362.00;;;;10248362;28;45385;-57
2021/12/29 08:16:40;;;;;;;1.58;0.32;;;21.20;29.50;21.70;93368.00;;;;10232456;28;45296;-57
2021/12/29 08:21:40;;;;;;;1.10;0.40;;;21.20;29.40;21.70;93370.00;;;;10232204;28;45209;-58
2021/12/29 08:26:41;;;;;;;1.20;0.40;;;21.20;29.50;21.70;93388.00;;;;10233771;28;45206;-58
2021/12/29 08:31:41;;;;;;;1.55;0.50;;;21.20;29.50;21.70;93377.00;;;;10233538;28;45152;-57
2021/12/29 08:36:42;;;;;;;0.82;0.35;;;21.20;29.40;21.70;93398.00;;;;10232086;28;46446;-57
2021/12/29 08:41:43;;;;;;;1.55;0.55;;;21.20;29.40;21.80;93398.00;;;;10231844;28;45594;-58
2021/12/29 08:46:46;;;;;;;0.85;0.30;;;21.30;29.50;21.80;93410.00;;;;10233296;28;45289;-58
2021/12/29 08:51:47;;;;;;;1.17;0.52;;;21.30;29.50;21.80;93423.00;;;;10231494;28;46096;-57
2021/12/29 08:56:47;;;;;;;1.85;0.35;;;21.30;29.40;21.80;93411.00;;;;10232074;28;46213;-58
2021/12/29 09:01:48;;;;;;;1.33;0.40;;;21.30;29.40;21.80;93416.00;;;;10232077;28;46016;-57
2021/12/29 09:06:49;;;;;;;1.25;0.30;;;21.30;29.40;21.80;93416.00;;;;10230664;28;45262;-57
2021/12/29 09:11:50;;;;;;;1.10;0.40;;;21.40;29.40;21.80;93423.00;;;;10246924;28;45228;-57
2021/12/29 09:16:51;;;;;;;1.67;0.50;;;21.30;29.40;21.80;93447.00;;;;10231147;28;45211;-58
2021/12/29 09:21:54;;;;;;;2.22;0.55;;;21.30;29.40;21.80;93450.00;;;;10232002;28;45675;-57
2021/12/29 09:26:55;;;;;;;1.80;0.38;;;21.40;29.40;21.80;93442.00;;;;10229889;28;45145;-58
2021/12/29 09:31:55;;;;;;;1.38;0.40;;;21.40;29.40;21.80;93449.00;;;;10231028;28;46038;-57
2021/12/29 09:36:56;;;;;;;1.50;0.43;;;21.30;29.40;21.80;93465.00;;;;10231727;28;45344;-57
2021/12/29 09:41:57;;;;;;;1.58;0.57;;;21.40;29.40;21.80;93442.00;;;;10231788;28;45157;-57
2021/12/29 09:46:58;;;;;;;1.05;0.43;;;21.40;29.40;21.80;93468.00;;;;10244880;28;45345;-57
2021/12/29 09:51:59;;;;;;;1.25;0.35;;;21.30;29.40;21.80;93464.00;;;;10244588;28;45167;-58
2021/12/29 09:57:00;;;;;;;1.45;0.38;;;21.40;29.40;21.80;93478.00;;;;10228573;28;48162;-58
2021/12/29 10:02:00;;;;;;;1.70;0.40;;;21.40;29.40;21.80;93470.00;;;;10238026;28;46409;-57
2021/12/29 10:07:31;;;;;;;1.38;0.50;;;21.40;29.40;21.80;93478.00;;;;10269154;28;46634;-58
2021/12/29 10:12:42;;;;;;;1.05;0.30;;;21.40;29.40;21.80;93473.00;;;;10240488;28;45296;-58
2021/12/29 10:17:43;;;;;;;1.55;0.50;;;21.40;29.40;21.80;93463.00;;;;10268956;28;46293;-58
2021/12/29 10:22:56;;;;;;;0.82;0.40;;;21.40;29.40;21.80;93462.00;;;;10231944;28;45515;-58
2021/12/29 10:27:56;;;;;;;1.20;0.40;;;21.40;29.30;21.80;93459.00;;;;10229739;28;45313;-59
2021/12/29 10:33:10;;;;;;;1.15;0.40;;;21.40;29.30;21.90;93460.00;;;;10228217;28;48336;-58
2021/12/29 10:38:21;;;;;;;6.50;1.13;;;21.40;29.30;20.90;93444.00;;;;10240553;28;45291;-60
2021/12/29 10:43:22;;;;;;;2.40;0.68;;;20.80;31.10;21.60;93444.00;;;;10268796;28;45097;-59
2021/12/29 10:48:29;;;;;;;1.98;0.47;;;20.90;29.70;21.40;93461.00;;;;10275270;28;45202;-57
2021/12/29 10:53:32;;;;;;;7.00;0.60;;;21.00;29.80;21.50;93446.00;;;;10248108;28;45235;-57
2021/12/29 10:58:35;;;;;;;3.67;0.40;;;21.00;29.90;21.40;93438.00;;;;10233909;28;46159;-56
2021/12/29 11:03:48;;;;;;;1.05;0.35;;;21.00;30.00;21.50;93436.00;;;;10232488;28;45182;-56
2021/12/29 11:08:52;;;;;;;0.85;0.30;;;21.00;30.40;21.50;93412.00;;;;10241014;28;46301;-59
2021/12/29 11:13:59;;;;;;;1.45;0.32;;;21.10;30.60;21.60;93421.00;;;;10272704;28;46208;-58
2021/12/29 11:18:59;;;;;;;0.32;0.10;;;21.10;30.60;21.50;93419.00;;;;10272929;28;45518;-59
2021/12/29 11:24:25;;;;;;;2.70;0.40;;;21.10;30.50;21.50;93433.00;;;;10274471;28;45210;-58
2021/12/29 11:29:26;;;;;;;1.27;0.45;;;21.10;30.60;21.60;93389.00;;;;10271821;28;46090;-58
2021/12/29 11:34:28;;;;;;;1.15;0.40;;;21.20;30.60;21.50;93408.00;;;;10274508;28;45546;-58
2021/12/29 11:39:39;;;;;;;1.60;0.63;;;21.20;30.80;21.50;93392.00;;;;10272596;28;46067;-56
2021/12/29 11:44:40;;;;;;;1.95;0.60;;;21.20;30.80;21.40;93393.00;;;;10273119;28;46435;-56
2021/12/29 11:49:41;;;;;;;2.38;0.95;;;21.10;30.70;21.40;93389.00;;;;10272128;28;45188;-57
2021/12/29 11:55:02;;;;;;;7.15;2.42;;;21.10;30.60;21.40;93388.00;;;;10272710;28;45326;-57
2021/12/29 12:00:12;;;;;;;10.90;3.40;;;21.00;30.50;21.30;93417.00;;;;10272035;28;45198;-57
2021/12/29 12:05:17;;;;;;;10.07;4.65;;;21.00;30.60;21.30;93414.00;;;;10272690;28;45264;-58
2021/12/29 12:10:35;;;;;;;13.43;5.80;;;21.00;30.60;21.30;93415.00;;;;10261547;28;46432;-57
2021/12/29 12:15:38;;;;;;;12.65;5.70;;;20.90;30.60;21.30;93392.00;;;;10284165;28;48036;-58
2021/12/29 12:20:49;;;;;;;16.30;6.82;;;20.90;30.70;21.20;93385.00;;;;10249972;28;45424;-57
2021/12/29 12:25:50;;;;;;;18.15;7.50;;;20.90;30.70;21.20;93364.00;;;;10231462;28;46115;-57
2021/12/29 12:30:54;;;;;;;16.90;7.53;;;20.90;30.80;21.20;93372.00;;;;10230638;28;45695;-58
2021/12/29 12:36:06;;;;;;;18.23;7.13;;;20.90;30.80;21.20;93386.00;;;;10231947;28;45466;-58
2021/12/29 12:41:11;;;;;;;15.48;6.55;;;20.90;30.80;21.20;93372.00;;;;10231764;28;46001;-58
2021/12/29 12:46:13;;;;;;;13.38;5.65;;;20.90;30.70;21.20;93385.00;;;;10230803;28;45701;-57
2021/12/29 12:51:18;;;;;;;12.90;6.00;;;20.90;30.70;21.20;93383.00;;;;10232200;28;46045;-57
2021/12/29 12:56:25;;;;;;;12.10;5.55;;;20.80;30.70;21.20;93385.00;;;;10262547;28;45187;-56
2021/12/29 13:01:27;;;;;;;13.65;6.05;;;20.80;30.70;21.20;93386.00;;;;10270858;28;45122;-58
2021/12/29 13:06:34;;;;;;;10.88;4.93;;;20.80;30.70;21.20;93387.00;;;;10270955;28;46123;-57
2021/12/29 13:11:37;;;;;;;13.27;5.18;;;20.80;30.70;21.20;93411.00;;;;10255535;28;46592;-58
2021/12/29 13:16:39;;;;;;;8.80;3.97;;;20.80;30.70;21.10;93416.00;;;;10269833;28;45178;-56
2021/12/29 13:21:44;;;;;;;12.20;5.03;;;20.80;30.70;21.10;93428.00;;;;10271441;28;45168;-56
2021/12/29 13:26:48;;;;;;;10.80;4.75;;;20.80;30.70;21.20;93426.00;;;;10271113;28;45672;-57
2021/12/29 13:31:51;;;;;;;9.98;4.30;;;20.80;30.70;21.20;93413.00;;;;10270991;28;45172;-57
2021/12/29 13:36:51;;;;;;;11.65;4.43;;;20.80;30.70;21.20;93416.00;;;;10269374;28;45203;-57
2021/12/29 13:41:52;;;;;;;7.60;4.05;;;20.80;30.60;21.20;93413.00;;;;10268488;28;47167;-57
2021/12/29 13:46:53;;;;;;;8.85;3.95;;;20.80;30.70;21.20;93423.00;;;;10270476;28;45278;-56
2021/12/29 13:51:54;;;;;;;7.45;3.42;;;20.80;31.00;21.20;93411.00;;;;10270791;28;45146;-58
2021/12/29 13:56:55;;;;;;;7.25;3.40;;;20.80;31.30;21.20;93421.00;;;;10230911;28;45386;-56
2021/12/29 14:02:02;;;;;;;6.53;3.08;;;20.80;31.70;21.20;93427.00;;;;10230169;28;45132;-58
2021/12/29 14:07:07;;;;;;;7.32;3.00;;;20.80;32.10;21.20;93429.00;;;;10228383;28;46475;-58
2021/12/29 14:12:17;;;;;;;6.53;3.30;;;20.80;32.30;21.20;93412.00;;;;10245900;28;45782;-57
2021/12/29 14:17:22;;;;;;;7.35;3.63;;;20.80;32.50;21.30;93418.00;;;;10232183;28;45513;-58
2021/12/29 14:22:28;;;;;;;7.70;3.33;;;20.80;32.80;21.30;93419.00;;;;10235622;28;45223;-57
2021/12/29 14:27:30;;;;;;;8.73;3.73;;;20.90;33.40;21.30;93415.00;;;;10235252;28;45272;-57
2021/12/29 14:32:31;;;;;;;9.55;3.80;;;20.90;34.00;21.30;93418.00;;;;10236058;28;45188;-55
2021/12/29 14:37:31;;;;;;;6.95;3.22;;;20.90;34.30;21.30;93418.00;;;;10236031;28;45270;-57
2021/12/29 14:42:37;;;;;;;7.22;3.30;;;21.00;34.10;21.40;93423.00;;;;10234167;28;45396;-57
2021/12/29 14:47:38;;;;;;;6.75;3.08;;;21.00;34.20;21.40;93429.00;;;;10235661;28;45230;-57
2021/12/29 14:52:45;;;;;;;7.03;3.10;;;21.10;34.50;21.40;93436.00;;;;10235483;28;45390;-57
2021/12/29 14:57:47;;;;;;;5.63;2.58;;;21.00;34.20;21.40;93423.00;;;;10233905;28;45636;-58
2021/12/29 15:02:49;;;;;;;6.03;3.00;;;21.10;34.30;21.40;93409.00;;;;10233797;28;46002;-58
2021/12/29 15:07:54;;;;;;;11.13;3.38;;;21.10;34.30;21.40;93435.00;;;;10233727;28;45255;-58
2021/12/29 15:12:56;;;;;;;6.05;2.92;;;21.10;34.40;21.50;93438.00;;;;10250068;28;45353;-56
2021/12/29 15:18:09;;;;;;;6.85;2.72;;;21.10;34.40;21.40;93428.00;;;;10234604;28;45314;-56
2021/12/29 15:23:12;;;;;;;4.70;2.20;;;21.10;34.30;21.40;93435.00;;;;10233024;28;46390;-57
2021/12/29 15:28:14;;;;;;;4.60;2.40;;;21.10;34.70;21.40;93437.00;;;;10234331;28;45238;-57
2021/12/29 15:33:16;;;;;;;5.63;2.20;;;21.10;34.50;21.30;93444.00;;;;10231899;28;45247;-57
2021/12/29 15:38:17;;;;;;;5.32;2.50;;;21.00;35.10;21.20;93428.00;;;;10234227;28;45169;-58
2021/12/29 15:43:18;;;;;;;5.32;2.20;;;20.90;35.50;21.20;93426.00;;;;10232686;28;45427;-58
2021/12/29 15:48:19;;;;;;;4.13;2.22;;;20.90;35.60;21.40;93420.00;;;;10229373;28;45261;-59
2021/12/29 15:53:19;;;;;;;5.13;2.05;;;21.00;36.50;21.40;93418.00;;;;10270538;28;45303;-60
2021/12/29 15:58:21;;;;;;;3.42;1.30;;;21.10;36.00;21.30;93418.00;;;;10273689;28;45284;-59
2021/12/29 16:03:22;;;;;;;2.10;1.00;;;21.00;34.80;21.10;93417.00;;;;10272490;28;45216;-60
2021/12/29 16:08:23;;;;;;;2.60;1.05;;;20.90;33.90;21.00;93416.00;;;;10267125;28;45307;-58
2021/12/29 16:13:23;;;;;;;4.15;0.80;;;20.80;34.10;21.00;93432.00;;;;10253760;28;45346;-58
2021/12/29 16:18:24;;;;;;;1.98;0.90;;;20.80;34.10;21.00;93446.00;;;;10272386;28;45357;-57
2021/12/29 16:23:25;;;;;;;3.80;0.98;;;20.70;34.20;21.20;93450.00;;;;10265471;28;45215;-58
2021/12/29 16:28:25;;;;;;;3.53;1.02;;;20.80;34.40;21.20;93446.00;;;;10272590;28;45205;-57
2021/12/29 16:33:26;;;;;;;3.33;1.10;;;20.80;35.00;21.30;93418.00;;;;10252772;28;45283;-57
2021/12/29 16:38:27;;;;;;;3.08;1.17;;;20.90;35.30;21.40;93443.00;;;;10230729;28;45229;-57
2021/12/29 16:43:29;;;;;;;2.95;1.23;;;20.90;35.00;21.40;93430.00;;;;10240728;28;45194;-56
2021/12/29 16:48:33;;;;;;;1.83;1.10;;;21.00;35.20;21.40;93437.00;;;;10260810;28;46414;-57
2021/12/29 16:53:34;;;;;;;3.15;1.30;;;21.00;35.50;21.50;93438.00;;;;10233170;28;45249;-56
2021/12/29 16:58:38;;;;;;;4.15;1.50;;;21.00;35.30;21.40;93429.00;;;;10232171;28;45603;-56
2021/12/29 17:03:39;;;;;;;3.35;1.65;;;21.00;35.70;21.40;93427.00;;;;10231862;28;46518;-57
2021/12/29 17:08:40;;;;;;;4.15;1.60;;;21.10;36.00;21.50;93421.00;;;;10230708;28;46215;-56
2021/12/29 17:13:41;;;;;;;2.63;1.60;;;21.10;35.50;21.50;93424.00;;;;10251797;28;45363;-56
2021/12/29 17:18:41;;;;;;;3.20;1.73;;;21.10;35.90;21.50;93439.00;;;;10271733;28;45307;-57
2021/12/29 17:23:42;;;;;;;2.72;1.52;;;21.10;35.90;21.50;93432.00;;;;10271535;28;46198;-56
2021/12/29 17:28:43;;;;;;;2.67;1.70;;;21.10;35.90;21.50;93423.00;;;;10271186;28;45164;-57
2021/12/29 17:33:44;;;;;;;2.33;1.65;;;21.10;35.90;21.50;93432.00;;;;10270957;28;45151;-56
2021/12/29 17:38:45;;;;;;;2.70;1.40;;;21.10;35.90;21.50;93417.00;;;;10269745;28;45235;-55
2021/12/29 17:43:48;;;;;;;2.25;1.58;;;21.10;35.80;21.50;93444.00;;;;10270107;28;46373;-55
2021/12/29 17:48:50;;;;;;;3.70;1.42;;;21.10;36.00;21.40;93452.00;;;;10270918;28;45166;-56
2021/12/29 17:53:51;;;;;;;3.40;1.77;;;21.10;36.00;21.40;93426.00;;;;10271572;28;45189;-56
2021/12/29 17:58:52;;;;;;;2.40;1.70;;;21.10;36.20;21.40;93424.00;;;;10276947;28;45415;-56
2021/12/29 18:03:54;;;;;;;2.75;1.30;;;21.00;36.10;21.40;93437.00;;;;10276646;28;45180;-56
2021/12/29 18:08:54;;;;;;;2.67;1.55;;;21.00;36.30;21.40;93441.00;;;;10277720;28;45941;-57
2021/12/29 18:13:55;;;;;;;2.83;1.63;;;21.00;36.30;21.30;93446.00;;;;10260429;28;46248;-55
2021/12/29 18:18:57;;;;;;;2.67;1.40;;;21.00;36.40;21.30;93452.00;;;;10276641;28;46791;-57
2021/12/29 18:23:59;;;;;;;2.03;1.13;;;21.00;36.50;21.30;93482.00;;;;10275587;28;45493;-57
2021/12/29 18:28:59;;;;;;;1.95;1.17;;;20.90;36.40;21.30;93470.00;;;;10276834;28;45219;-55
2021/12/29 18:34:01;;;;;;;2.30;1.58;;;20.90;36.40;21.30;93469.00;;;;10277789;28;45273;-56
2021/12/29 18:39:05;;;;;;;1.73;1.15;;;20.90;36.50;21.20;93463.00;;;;10274532;28;45635;-57
2021/12/29 18:44:06;;;;;;;2.38;1.10;;;20.90;36.60;21.20;93465.00;;;;10275393;28;45370;-56
2021/12/29 18:49:07;;;;;;;2.70;1.30;;;20.90;36.80;21.20;93492.00;;;;10275365;28;45160;-56
2021/12/29 18:54:08;;;;;;;2.53;1.33;;;20.90;36.70;21.30;93480.00;;;;10276598;28;45431;-57
2021/12/29 18:59:10;;;;;;;3.03;1.40;;;20.90;36.60;21.20;93494.00;;;;10251094;28;45294;-57
2021/12/29 19:04:10;;;;;;;2.30;1.30;;;20.90;36.80;21.20;93498.00;;;;10217349;28;45682;-56
2021/12/29 19:09:11;;;;;;;4.32;1.10;;;20.90;36.90;21.30;93504.00;;;;10215370;28;46406;-57
2021/12/29 19:14:12;;;;;;;1.02;0.90;;;20.90;36.80;21.30;93513.00;;;;10242557;28;45529;-56
2021/12/29 19:19:13;;;;;;;1.80;1.00;;;20.90;36.80;21.20;93514.00;;;;10273862;28;46220;-56
2021/12/29 19:24:13;;;;;;;2.90;1.30;;;20.90;36.90;21.20;93533.00;;;;10275626;28;46451;-57
2021/12/29 19:29:14;;;;;;;2.63;1.17;;;20.90;37.00;21.20;93528.00;;;;10274043;28;45307;-57
2021/12/29 19:34:15;;;;;;;2.00;1.10;;;20.80;37.00;21.20;93529.00;;;;10273658;28;47032;-57
2021/12/29 19:39:16;;;;;;;1.33;0.82;;;20.80;37.00;21.20;93544.00;;;;10272453;28;45420;-57
2021/12/29 19:44:17;;;;;;;2.33;1.10;;;20.80;36.90;21.20;93553.00;;;;10274762;28;46029;-57
2021/12/29 19:49:19;;;;;;;1.48;0.85;;;20.80;36.90;21.20;93536.00;;;;10274753;28;45181;-56
2021/12/29 19:54:22;;;;;;;1.98;0.90;;;20.90;37.10;21.20;93563.00;;;;10289082;28;47282;-56
2021/12/29 19:59:23;;;;;;;1.90;0.80;;;20.80;37.00;21.30;93580.00;;;;10273670;28;46091;-57
2021/12/29 20:04:23;;;;;;;1.17;0.80;;;20.90;37.00;21.30;93600.00;;;;10271947;28;46181;-57
2021/12/29 20:09:24;;;;;;;1.88;1.00;;;20.90;37.00;21.30;93606.00;;;;10271215;28;45296;-56
2021/12/29 20:14:28;;;;;;;1.80;0.80;;;20.90;37.00;21.20;93629.00;;;;10259748;28;47188;-56
2021/12/29 20:19:29;;;;;;;1.08;0.70;;;20.90;37.00;21.20;93633.00;;;;10271858;28;45155;-58
2021/12/29 20:24:31;;;;;;;1.48;0.80;;;20.90;36.90;21.20;93633.00;;;;10271976;28;45561;-57
2021/12/29 20:29:33;;;;;;;1.15;0.73;;;20.90;36.90;21.30;93643.00;;;;10288163;28;47187;-57
2021/12/29 20:34:35;;;;;;;1.95;0.73;;;20.90;36.80;21.30;93652.00;;;;10271338;28;46290;-56
2021/12/29 20:39:35;;;;;;;1.20;0.70;;;20.90;36.80;21.20;93657.00;;;;10272094;28;45244;-57
2021/12/29 20:44:36;;;;;;;1.00;0.60;;;20.90;36.70;21.20;93671.00;;;;10273293;28;46055;-56
2021/12/29 20:49:37;;;;;;;0.80;0.70;;;20.90;36.80;21.20;93688.00;;;;10271720;28;46640;-57
2021/12/29 20:54:38;;;;;;;0.55;0.45;;;20.90;36.70;21.20;93683.00;;;;10272090;28;45406;-56
2021/12/29 20:59:40;;;;;;;0.85;0.70;;;20.90;37.40;21.20;93702.00;;;;10272687;28;46479;-57
2021/12/29 21:04:41;;;;;;;1.17;0.55;;;20.90;36.80;21.30;93710.00;;;;10271837;28;45179;-56
2021/12/29 21:09:41;;;;;;;0.88;0.57;;;20.80;36.60;21.30;93713.00;;;;10266012;28;45534;-56
2021/12/29 21:14:42;;;;;;;1.38;0.50;;;20.90;37.50;21.20;93720.00;;;;10262012;28;45569;-56
2021/12/29 21:19:43;;;;;;;1.17;0.70;;;20.80;36.60;21.20;93713.00;;;;10274061;28;45275;-56
2021/12/29 21:24:43;;;;;;;0.90;0.50;;;20.80;36.60;21.20;93752.00;;;;10273475;28;45339;-56
2021/12/29 21:29:44;;;;;;;0.70;0.50;;;20.80;36.60;21.20;93744.00;;;;10271387;28;45154;-56
2021/12/29 21:34:46;;;;;;;0.50;0.40;;;20.80;36.60;21.10;93745.00;;;;10270864;28;45305;-58
2021/12/29 21:39:48;;;;;;;0.82;0.50;;;20.80;36.50;21.10;93774.00;;;;10267041;28;45921;-56
2021/12/29 21:44:49;;;;;;;1.98;0.30;;;20.70;36.50;21.10;93773.00;;;;10270871;28;45201;-57
2021/12/29 21:49:50;;;;;;;0.80;0.40;;;20.70;36.50;21.10;93766.00;;;;10270147;28;45178;-57
2021/12/29 21:54:51;;;;;;;0.68;0.40;;;20.70;36.50;21.00;93781.00;;;;10271647;28;45195;-58
2021/12/29 21:59:52;;;;;;;0.77;0.40;;;20.70;36.50;21.00;93804.00;;;;10269731;28;45224;-57
2021/12/29 22:04:52;;;;;;;0.30;0.30;;;20.60;36.40;21.00;93816.00;;;;10266984;28;45907;-57
2021/12/29 22:09:53;;;;;;;0.40;0.40;;;20.60;36.50;20.90;93836.00;;;;10260295;28;47672;-58
2021/12/29 22:14:54;;;;;;;0.30;0.30;;;20.60;36.50;20.90;93825.00;;;;10257956;28;45593;-57